Goerlitz, Germany

4:46 PM CET on February 01, 2015 (GMT +0100)
ISACHSEN20 | Change Station
CLOSE
Current Station
Personal Weather Station
Location: Neisseaue, SACHSEN
Elevation: 597 ft
Nearby Weather Stations

Elev 597 ft 51.25 °N, 14.97 °E | Updated 45 minutes ago

Mostly Cloudy
Mostly Cloudy
37.2 °F
Feels Like 37 °F
N
2.4
Wind Variable Wind from South
Gusts 6.0 mph

Today
High -- | Low -- °F
--% Chance of Precip.
Yesterday
High -- | Low -- °F
Precip. -- in
7:38 AM 4:50 PM
Waxing Gibbous, 95% visible
Pressure 29.24 in
Visibility 6.2 miles
Clouds Mostly Cloudy 3400 ft
Windchill 37 °F
Dew Point 31 °F
Humidity 79%
Rainfall 0.00 in
Snow Depth Not available.
UV 0 out of 12
Pollen Not available.
Air Quality Not available.
Flu Activity Not available.
METAR EDDC 011520Z 27003KT 9999 BKN034 02/M02 Q0990 NOSIG

More Conditions Fewer Conditions

Pressure 29.24 in
Visibility 6.2 miles
Clouds Mostly Cloudy 3400 ft
Windchill 37 °F
Dew Point 31 °F
Humidity 79%
Rainfall 0.00 in
Snow Depth Not available.
UV 0 out of 12
Pollen Not available.
Air Quality Not available.
Flu Activity Not available.
METAR EDDC 011520Z 27003KT 9999 BKN034 02/M02 Q0990 NOSIG

More Conditions Fewer Conditions

10-Day Weather Forecast

Almanac

Astronomy

Feb. 01, 2015 Rise Set
Actual Time
Civil Twilight
Nautical Twilight
Astronomical Twilight
Moon
Length of Visible Light
Length of Day
Tomorrow will be .
, % of the Moon is Illuminated

Today's Extremes

Country Highs Country Lows

Community

WunderPhotos

Upload Photos

1,792,362 photos uploaded!

WunderBlogs® & News

Nearby

Air Quality

  Air Quality AQ Index Pollutant
Not available.

Snow Depth

Station Depth Elevation

Earthquake Activity

City Distance Mag. Time & Date
Minimum magnitude displayed is 2.5.

Coastal Water Temperatures

Place Temperature

Nearby Weather Stations